Time;durP1;ratioP1;P1;durP2;ratioP2;P2;SDS_P1;SDS_P2;PMS_P1;PMS_P2;Temp;Humidity;BMP_temperature;BMP_pressure;BME280_temperature;BME280_humidity;BME280_pressure;Samples;Min_cycle;Max_cycle;Signal;HPM_P1;HPM_P2
2023/01/12 00:02:19;;;;;;;64.60;58.20;;;;;;;3.23;92.83;97893.25;106989;1280;25991;-89
2023/01/12 00:04:47;;;;;;;66.30;59.80;;;;;;;3.21;92.81;97894.73;107209;1280;24251;-87
2023/01/12 00:07:16;;;;;;;73.40;66.40;;;;;;;3.17;92.60;97891.59;106651;1280;22872;-87
2023/01/12 00:09:45;;;;;;;70.30;63.40;;;;;;;3.15;92.53;97888.38;107205;1280;25347;-88
2023/01/12 00:12:13;;;;;;;56.80;51.20;;;;;;;3.13;92.76;97895.91;106835;1280;25388;-86
2023/01/12 00:14:41;;;;;;;58.50;52.50;;;;;;;3.13;92.49;97899.11;106740;1280;22571;-91
2023/01/12 00:17:10;;;;;;;56.80;51.30;;;;;;;3.16;92.55;97896.70;107240;1280;22542;-90
2023/01/12 00:19:39;;;;;;;61.50;55.60;;;;;;;3.17;92.71;97900.27;107287;1280;25550;-91
2023/01/12 00:22:10;;;;;;;62.30;56.10;;;;;;;3.17;92.53;97897.61;107003;1268;25240;-89
2023/01/12 00:24:42;;;;;;;69.30;62.80;;;;;;;3.16;92.77;97890.89;106879;1280;22598;-90
2023/01/12 00:27:16;;;;;;;61.00;54.90;;;;;;;3.15;92.47;97897.02;106984;1280;22686;-90
2023/01/12 00:29:44;;;;;;;61.20;55.20;;;;;;;3.15;92.67;97900.94;106674;1280;22579;-88
2023/01/12 00:32:15;;;;;;;58.30;52.70;;;;;;;3.15;92.52;97899.14;107147;1280;22759;-90
2023/01/12 00:34:44;;;;;;;55.90;50.80;;;;;;;3.17;92.73;97900.33;107118;1280;22904;-89
2023/01/12 00:37:12;;;;;;;60.90;55.10;;;;;;;3.14;92.54;97906.59;107053;1280;23191;-89
2023/01/12 00:39:40;;;;;;;61.70;55.70;;;;;;;3.09;92.95;97910.73;106961;1280;23941;-89
2023/01/12 00:45:20;;;;;;;58.00;52.60;;;;;;;3.01;93.19;97914.84;106912;1280;24230;-90
2023/01/12 00:47:49;;;;;;;58.40;52.30;;;;;;;2.99;92.88;97919.36;107294;1280;24815;-90
2023/01/12 00:50:17;;;;;;;56.40;51.10;;;;;;;2.97;93.19;97918.42;107543;1280;22690;-91
2023/01/12 00:52:46;;;;;;;61.70;55.90;;;;;;;2.95;93.38;97919.98;109378;1280;22583;-88
2023/01/12 00:55:14;;;;;;;60.40;54.50;;;;;;;2.93;93.70;97915.98;110093;1280;22079;-85
2023/01/12 00:57:42;;;;;;;53.50;48.40;;;;;;;2.95;94.13;97925.05;110225;1280;22848;-87
2023/01/12 01:00:12;;;;;;;54.70;49.40;;;;;;;2.96;93.94;97928.73;107566;1280;22641;-88
2023/01/12 01:02:40;;;;;;;56.90;51.40;;;;;;;2.97;94.15;97925.86;107411;1280;23314;-89
2023/01/12 01:09:46;;;;;;;55.60;50.20;;;;;;;2.97;93.89;97926.58;107522;1280;22533;-89
2023/01/12 01:12:14;;;;;;;53.30;48.30;;;;;;;2.95;93.90;97929.48;107083;1280;22660;-89
2023/01/12 01:14:42;;;;;;;51.70;46.60;;;;;;;2.98;94.04;97930.09;107080;1280;23949;-90
2023/01/12 01:17:10;;;;;;;49.30;44.50;;;;;;;3.01;94.19;97931.30;106986;1280;24894;-88
2023/01/12 01:19:38;;;;;;;53.00;47.60;;;;;;;3.06;94.42;97933.80;107413;1280;25359;-91
2023/01/12 01:22:06;;;;;;;55.60;50.40;;;;;;;3.11;94.20;97933.55;106912;1280;22534;-88
2023/01/12 01:24:33;;;;;;;55.20;49.90;;;;;;;3.15;94.73;97931.83;106833;1280;24257;-88
2023/01/12 01:27:01;;;;;;;53.80;48.90;;;;;;;3.17;94.67;97934.35;106906;1280;22624;-88
2023/01/12 01:29:29;;;;;;;50.20;45.50;;;;;;;3.17;94.74;97934.14;106909;1280;24285;-88
2023/01/12 01:31:58;;;;;;;49.20;44.20;;;;;;;3.17;94.42;97933.02;106937;1280;25614;-88
2023/01/12 01:34:26;;;;;;;47.60;43.00;;;;;;;3.21;94.37;97933.86;106990;1280;22537;-88
2023/01/12 01:36:54;;;;;;;51.30;46.50;;;;;;;3.23;94.53;97939.10;106901;1279;23479;-87
2023/01/12 01:39:22;;;;;;;57.00;51.40;;;;;;;3.26;94.85;97937.05;106919;1280;23327;-87
2023/01/12 01:41:50;;;;;;;56.70;51.20;;;;;;;3.28;94.95;97938.99;106970;1280;22636;-87
2023/01/12 01:44:28;;;;;;;58.80;53.00;;;;;;;3.30;94.85;97943.86;107120;1277;22554;-88
2023/01/12 01:46:55;;;;;;;58.30;52.60;;;;;;;3.35;95.04;97944.14;108591;1280;22675;-90
2023/01/12 01:49:26;;;;;;;59.00;53.50;;;;;;;3.39;94.92;97945.55;106951;1279;22585;-89
2023/01/12 01:52:11;;;;;;;59.40;53.80;;;;;;;3.44;95.14;97940.60;106858;1280;22660;-88
2023/01/12 01:54:47;;;;;;;62.20;56.60;;;;;;;3.49;95.10;97947.41;106963;1280;24344;-89
2023/01/12 01:57:16;;;;;;;63.90;58.10;;;;;;;3.52;95.36;97949.35;106867;1279;22595;-89
2023/01/12 01:59:50;;;;;;;57.60;52.10;;;;;;;3.52;95.32;97954.16;106937;1280;23349;-89
2023/01/12 02:02:18;;;;;;;56.20;51.00;;;;;;;3.55;95.48;97952.96;107015;1280;25421;-90
2023/01/12 02:04:47;;;;;;;50.70;46.00;;;;;;;3.59;95.23;97952.27;106976;1262;25473;-90
2023/01/12 02:07:15;;;;;;;52.20;47.40;;;;;;;3.62;95.01;97948.73;107690;1269;22715;-91
2023/01/12 02:09:43;;;;;;;48.60;43.80;;;;;;;3.64;95.27;97946.61;107187;1280;22650;-88
2023/01/12 02:17:48;;;;;;;52.30;47.20;;;;;;;3.60;95.65;97939.16;106867;1280;22541;-90
2023/01/12 02:20:19;;;;;;;43.70;39.50;;;;;;;3.63;95.60;97935.45;106911;1280;26727;-91
2023/01/12 02:23:12;;;;;;;48.30;43.30;;;;;;;3.69;95.61;97936.67;107054;1280;22616;-91
2023/01/12 02:25:49;;;;;;;45.70;41.30;;;;;;;3.71;95.63;97931.05;107799;1280;24224;-91
2023/01/12 02:28:51;;;;;;;53.30;47.70;;;;;;;3.70;95.73;97927.98;108836;1280;22667;-89
2023/01/12 02:31:47;;;;;;;55.30;50.00;;;;;;;3.70;95.70;97927.84;108379;1280;22567;-89
2023/01/12 02:34:43;;;;;;;54.40;49.40;;;;;;;3.71;95.71;97934.41;106921;1280;22670;-89
2023/01/12 02:37:31;;;;;;;54.40;49.30;;;;;;;3.75;95.88;97934.71;107102;1280;25358;-90
2023/01/12 02:40:14;;;;;;;55.40;50.50;;;;;;;3.80;95.75;97937.52;107176;1280;22646;-89
2023/01/12 02:42:50;;;;;;;56.60;51.60;;;;;;;3.82;95.78;97936.48;106956;1280;22540;-89
2023/01/12 02:49:53;;;;;;;51.20;46.50;;;;;;;3.75;96.19;97938.77;107144;1279;25355;-88
2023/01/12 02:52:25;;;;;;;43.40;39.40;;;;;;;3.76;96.06;97937.48;107119;1280;24233;-89
2023/01/12 02:54:55;;;;;;;38.50;34.80;;;;;;;3.79;96.12;97937.84;106700;1280;24346;-87
2023/01/12 02:57:27;;;;;;;36.70;33.10;;;;;;;3.81;96.27;97939.55;106901;1279;25300;-87
2023/01/12 03:00:00;;;;;;;34.60;31.40;;;;;;;3.83;96.41;97941.49;106962;1280;22541;-87
2023/01/12 03:02:29;;;;;;;37.30;33.80;;;;;;;3.81;95.93;97942.16;106874;1278;22755;-87
2023/01/12 03:04:57;;;;;;;34.80;31.50;;;;;;;3.78;96.40;97942.09;106929;1280;22529;-87
2023/01/12 03:07:44;;;;;;;36.30;33.10;;;;;;;3.79;96.43;97941.94;106915;1280;22565;-86
2023/01/12 03:10:32;;;;;;;32.80;29.80;;;;;;;3.83;96.87;97941.60;106998;1280;22666;-87
2023/01/12 03:13:05;;;;;;;33.20;30.00;;;;;;;3.85;96.44;97946.63;106931;1280;22575;-87
2023/01/12 03:15:39;;;;;;;34.50;31.20;;;;;;;3.90;96.69;97954.45;106888;1269;22611;-87
2023/01/12 03:18:14;;;;;;;36.90;33.80;;;;;;;3.93;96.68;97958.31;106772;1280;22564;-87
2023/01/12 03:20:59;;;;;;;39.00;35.30;;;;;;;3.93;96.59;97961.73;107046;1280;25565;-87
2023/01/12 03:23:51;;;;;;;38.90;35.30;;;;;;;3.91;96.81;97963.08;106863;1259;24314;-87
2023/01/12 03:26:24;;;;;;;39.30;35.60;;;;;;;3.93;97.09;97967.38;106814;1280;24266;-88
2023/01/12 03:29:14;;;;;;;34.10;30.90;;;;;;;3.97;96.89;97968.44;106957;1280;25429;-88
2023/01/12 03:31:43;;;;;;;32.70;29.60;;;;;;;4.00;96.91;97972.51;107453;1262;25875;-88
2023/01/12 03:34:11;;;;;;;35.00;31.70;;;;;;;4.05;96.92;97975.27;108664;1280;22615;-90
2023/01/12 03:36:53;;;;;;;40.70;36.90;;;;;;;4.05;96.93;97978.05;106936;1279;24401;-90
2023/01/12 03:39:42;;;;;;;38.90;35.40;;;;;;;4.05;97.02;97973.55;106845;1280;25151;-90
2023/01/12 03:42:13;;;;;;;28.70;26.20;;;;;;;4.03;97.05;97970.29;106829;1280;22774;-90
2023/01/12 03:44:51;;;;;;;30.50;27.80;;;;;;;4.04;97.15;97975.16;106819;1280;24404;-88
2023/01/12 03:47:28;;;;;;;31.90;28.80;;;;;;;4.06;97.35;97970.85;106916;1280;22561;-89
2023/01/12 03:50:05;;;;;;;35.20;32.10;;;;;;;4.07;97.25;97969.21;106952;1268;24266;-91
2023/01/12 03:53:26;;;;;;;35.30;32.00;;;;;;;4.06;97.33;97968.24;107077;1280;25331;-89
2023/01/12 03:55:59;;;;;;;43.70;39.50;;;;;;;4.01;97.34;97967.87;107102;1280;22733;-88
2023/01/12 03:58:28;;;;;;;42.60;38.30;;;;;;;3.97;97.27;97970.89;107066;1280;22658;-88
2023/01/12 04:00:56;;;;;;;29.10;26.50;;;;;;;3.96;97.35;97969.43;106853;1280;24882;-87
2023/01/12 04:03:24;;;;;;;39.00;35.20;;;;;;;3.93;97.77;97964.77;106795;1280;25292;-88
2023/01/12 04:05:53;;;;;;;35.10;31.90;;;;;;;3.93;97.79;97966.73;106812;1280;23158;-87
2023/01/12 04:12:09;;;;;;;37.10;33.50;;;;;;;3.83;97.99;97980.04;106878;1280;25185;-87
2023/01/12 04:14:41;;;;;;;33.70;30.50;;;;;;;3.80;98.25;97980.48;107029;1279;24923;-87
2023/01/12 04:17:12;;;;;;;29.30;26.20;;;;;;;3.77;98.31;97982.00;107379;1280;22998;-89
2023/01/12 04:23:52;;;;;;;31.00;28.00;;;;;;;3.79;98.31;97983.46;107119;1278;22538;-89
2023/01/12 04:26:20;;;;;;;30.30;27.60;;;;;;;3.82;98.12;97986.42;106990;1280;22535;-89
2023/01/12 04:33:36;;;;;;;26.20;23.80;;;;;;;3.80;98.94;97980.33;107525;1280;24346;-92
2023/01/12 04:36:05;;;;;;;22.70;20.60;;;;;;;3.83;99.02;97979.83;107290;1277;23223;-91
2023/01/12 04:47:06;;;;;;;26.90;24.50;;;;;;;3.81;99.69;97975.90;107240;1280;22693;-91
2023/01/12 04:49:35;;;;;;;22.70;20.60;;;;;;;3.82;99.48;97972.10;106914;1280;24440;-91
2023/01/12 04:52:03;;;;;;;25.80;23.00;;;;;;;3.85;99.34;97971.31;106972;1280;24254;-92
2023/01/12 04:54:31;;;;;;;25.30;23.10;;;;;;;3.87;99.39;97976.13;107523;1266;24339;-89
2023/01/12 04:57:00;;;;;;;24.80;22.70;;;;;;;3.90;99.80;97983.14;107074;1280;22569;-89
2023/01/12 04:59:28;;;;;;;24.20;22.00;;;;;;;3.89;99.96;97987.92;107126;1280;22544;-89
2023/01/12 05:01:56;;;;;;;20.20;18.30;;;;;;;3.88;99.98;97988.07;107193;1280;22660;-88
2023/01/12 05:04:25;;;;;;;20.00;18.20;;;;;;;3.91;100.00;97991.50;106881;1280;23901;-88
2023/01/12 05:06:54;;;;;;;19.70;17.70;;;;;;;3.91;100.00;97987.66;106946;1280;24191;-89
2023/01/12 05:12:26;;;;;;;21.00;19.10;;;;;;;3.96;100.00;97994.34;109456;1280;22743;-89
2023/01/12 05:14:59;;;;;;;23.10;20.90;;;;;;;3.98;100.00;97994.03;107661;1280;25429;-88
2023/01/12 05:17:27;;;;;;;23.00;20.90;;;;;;;3.97;100.00;97995.26;107100;1280;22576;-90
2023/01/12 05:19:55;;;;;;;21.20;19.20;;;;;;;3.99;100.00;98000.28;107367;1268;22652;-90
2023/01/12 05:22:25;;;;;;;20.60;18.80;;;;;;;4.03;100.00;98001.48;107661;1280;22651;-91
2023/01/12 05:24:53;;;;;;;19.50;17.60;;;;;;;4.06;100.00;98005.41;108053;1279;23301;-88
2023/01/12 05:27:21;;;;;;;21.00;19.10;;;;;;;4.09;100.00;98007.78;109133;1280;22604;-89
2023/01/12 05:29:51;;;;;;;23.60;21.50;;;;;;;4.08;100.00;98012.63;107220;1280;24233;-89
2023/01/12 05:32:19;;;;;;;20.70;18.80;;;;;;;4.05;100.00;98015.77;106988;1280;22758;-90
2023/01/12 05:34:47;;;;;;;26.40;23.80;;;;;;;4.04;100.00;98018.77;107053;1280;22748;-90
2023/01/12 05:37:16;;;;;;;26.60;24.10;;;;;;;4.05;100.00;98019.64;107009;1280;23838;-89
2023/01/12 05:39:44;;;;;;;28.20;25.90;;;;;;;4.06;100.00;98019.01;106911;1280;25290;-89
2023/01/12 05:45:25;;;;;;;34.80;32.00;;;;;;;4.16;100.00;98011.45;106880;1280;25460;-89
2023/01/12 05:47:58;;;;;;;29.50;27.10;;;;;;;4.18;100.00;98008.60;106868;1280;21878;-89
2023/01/12 05:50:27;;;;;;;33.70;30.70;;;;;;;4.16;100.00;98006.97;107095;1279;22988;-90
2023/01/12 05:53:09;;;;;;;35.90;32.80;;;;;;;4.16;100.00;98004.15;106919;1280;24256;-89
2023/01/12 05:55:37;;;;;;;31.60;28.80;;;;;;;4.16;100.00;98002.66;106859;1280;22536;-89
2023/01/12 05:58:05;;;;;;;32.80;30.10;;;;;;;4.16;100.00;97998.88;106996;1263;22624;-90
2023/01/12 06:00:34;;;;;;;30.90;28.10;;;;;;;4.14;100.00;98001.41;106932;1280;24274;-89
2023/01/12 06:03:02;;;;;;;28.90;26.50;;;;;;;4.08;100.00;98001.59;106866;1280;25279;-90
2023/01/12 06:05:30;;;;;;;26.60;24.30;;;;;;;4.05;100.00;98006.08;107079;1280;25430;-89
2023/01/12 06:07:59;;;;;;;25.10;22.90;;;;;;;4.04;100.00;98013.75;107043;1280;22609;-89
2023/01/12 06:10:28;;;;;;;23.20;21.00;;;;;;;4.04;100.00;98021.02;106954;1280;24276;-89
2023/01/12 06:15:42;;;;;;;26.20;23.80;;;;;;;4.04;100.00;98014.88;107021;1280;25529;-88
2023/01/12 06:18:11;;;;;;;25.30;23.10;;;;;;;4.02;100.00;98022.82;106944;1258;23903;-88
2023/01/12 06:20:39;;;;;;;23.10;20.80;;;;;;;4.02;100.00;98026.64;107090;1262;23426;-88
2023/01/12 06:23:07;;;;;;;23.80;21.50;;;;;;;4.03;100.00;98025.91;107142;1280;25474;-88
2023/01/12 06:25:35;;;;;;;18.60;16.90;;;;;;;4.04;100.00;98028.06;108472;1280;22542;-88
2023/01/12 06:28:05;;;;;;;19.00;17.30;;;;;;;4.06;100.00;98027.16;109913;1280;22674;-87
2023/01/12 06:30:33;;;;;;;16.60;15.10;;;;;;;4.05;100.00;98032.66;109979;1279;22578;-91
2023/01/12 06:33:02;;;;;;;15.50;14.10;;;;;;;4.07;100.00;98040.40;108816;1280;22624;-88
2023/01/12 06:35:30;;;;;;;14.80;13.40;;;;;;;4.08;100.00;98039.34;107610;1280;22571;-88
2023/01/12 06:37:58;;;;;;;14.90;13.50;;;;;;;4.10;100.00;98041.98;109277;1280;23017;-89
2023/01/12 06:45:04;;;;;;;15.20;13.80;;;;;;;4.14;100.00;98036.08;107084;1280;22824;-89
2023/01/12 06:47:32;;;;;;;14.70;13.40;;;;;;;4.12;100.00;98038.15;107562;1280;22551;-96
2023/01/12 06:50:06;;;;;;;14.40;13.10;;;;;;;4.11;100.00;98039.25;107374;1280;22662;-89
2023/01/12 06:52:34;;;;;;;13.80;12.10;;;;;;;4.10;100.00;98038.77;107033;1279;24266;-90
2023/01/12 06:55:03;;;;;;;14.80;13.40;;;;;;;4.10;100.00;98033.71;107217;1280;22594;-91
2023/01/12 06:57:32;;;;;;;16.00;14.60;;;;;;;4.08;100.00;98032.25;107582;1278;22817;-88
2023/01/12 07:00:00;;;;;;;14.60;13.30;;;;;;;4.05;100.00;98033.45;107670;1279;25387;-91
2023/01/12 07:02:28;;;;;;;14.40;13.00;;;;;;;4.03;100.00;98037.42;107925;1280;25426;-90
2023/01/12 07:04:56;;;;;;;21.60;19.40;;;;;;;4.04;100.00;98043.24;107515;1279;22533;-91
2023/01/12 07:07:24;;;;;;;17.80;16.00;;;;;;;4.03;100.00;98038.45;108278;1280;23819;-92
2023/01/12 07:09:53;;;;;;;15.60;14.20;;;;;;;4.05;100.00;98038.73;108397;1280;22556;-88
2023/01/12 07:12:21;;;;;;;19.70;18.00;;;;;;;4.06;100.00;98039.16;107400;1280;22617;-91
2023/01/12 07:14:50;;;;;;;18.50;16.70;;;;;;;4.04;100.00;98043.26;108433;1280;25236;-96
2023/01/12 07:17:19;;;;;;;16.00;14.40;;;;;;;4.02;100.00;98045.91;109039;1279;22534;-92
2023/01/12 07:19:47;;;;;;;15.60;14.20;;;;;;;4.02;100.00;98050.70;108325;1278;22543;-92
2023/01/12 07:22:15;;;;;;;35.80;22.30;;;;;;;4.03;100.00;98046.83;109505;1280;22569;-89
2023/01/12 07:24:44;;;;;;;18.60;16.80;;;;;;;4.04;100.00;98046.66;108527;1280;24198;-92
2023/01/12 07:27:13;;;;;;;19.10;17.20;;;;;;;4.04;100.00;98051.19;108658;1280;22741;-90
2023/01/12 07:29:41;;;;;;;18.40;16.70;;;;;;;4.04;100.00;98060.27;108635;1266;25300;-92
2023/01/12 07:32:10;;;;;;;16.80;15.20;;;;;;;4.04;100.00;98063.29;108583;1280;23960;-93
2023/01/12 07:34:39;;;;;;;17.40;15.80;;;;;;;4.04;100.00;98067.73;108577;1280;22575;-93
2023/01/12 07:37:07;;;;;;;16.30;14.70;;;;;;;4.04;100.00;98069.29;108459;1279;25444;-94
2023/01/12 07:39:36;;;;;;;15.70;14.20;;;;;;;4.06;100.00;98069.73;108287;1280;184165;-94
2023/01/12 07:42:23;;;;;;;17.80;16.10;;;;;;;4.06;100.00;98069.73;108044;1280;23867;-93
2023/01/12 07:44:52;;;;;;;18.20;16.70;;;;;;;4.05;100.00;98076.38;108564;1280;22580;-95
2023/01/12 07:47:20;;;;;;;18.30;16.60;;;;;;;4.02;100.00;98075.98;108774;1279;23023;-94
2023/01/12 07:49:48;;;;;;;18.80;17.20;;;;;;;4.01;100.00;98073.99;108686;1280;24269;-93
2023/01/12 07:52:17;;;;;;;19.10;17.30;;;;;;;4.03;100.00;98077.97;108765;1280;23688;-94
2023/01/12 07:54:45;;;;;;;19.40;17.60;;;;;;;4.06;100.00;98080.66;108925;1280;22548;-94
2023/01/12 07:57:14;;;;;;;22.00;20.00;;;;;;;4.10;100.00;98084.96;108939;1280;24137;-94
2023/01/12 07:59:43;;;;;;;22.30;20.00;;;;;;;4.10;100.00;98089.80;109011;1279;22509;-93
2023/01/12 08:09:16;;;;;;;28.40;25.70;;;;;;;4.08;100.00;98088.52;109991;1264;22644;-93
2023/01/12 08:15:07;;;;;;;35.40;32.00;;;;;;;4.17;100.00;98082.84;102663;1272;22765;-93
2023/01/12 08:17:53;;;;;;;35.60;32.30;;;;;;;4.17;100.00;98080.28;109127;1284;25398;-91
2023/01/12 08:21:14;;;;;;;32.30;29.30;;;;;;;4.19;100.00;98073.90;109495;1283;23713;-92
2023/01/12 08:23:49;;;;;;;36.20;33.00;;;;;;;4.23;100.00;98071.64;109466;1284;24208;-94
2023/01/12 08:26:24;;;;;;;36.40;33.20;;;;;;;4.25;100.00;98069.47;109577;1284;22647;-95
2023/01/12 08:29:12;;;;;;;40.40;36.60;;;;;;;4.25;100.00;98067.92;108325;1280;22487;-94
2023/01/12 08:31:41;;;;;;;34.20;31.20;;;;;;;4.25;100.00;98075.02;108439;1280;22718;-94
2023/01/12 08:34:10;;;;;;;37.80;34.40;;;;;;;4.23;100.00;98073.30;107669;1280;25337;-88
2023/01/12 08:37:34;;;;;;;43.70;39.70;;;;;;;4.21;100.00;98062.77;107012;1262;22541;-89
2023/01/12 08:46:59;;;;;;;33.50;30.50;;;;;;;4.18;100.00;98077.23;106955;1279;24398;-92
2023/01/12 08:49:35;;;;;;;30.60;27.70;;;;;;;4.19;100.00;98073.25;107194;1279;23309;-91
2023/01/12 08:52:04;;;;;;;33.30;30.40;;;;;;;4.24;100.00;98079.27;106950;1280;25232;-88
2023/01/12 08:54:32;;;;;;;38.60;35.20;;;;;;;4.32;100.00;98082.82;107414;1277;23250;-88
2023/01/12 08:57:00;;;;;;;50.60;46.10;;;;;;;4.40;100.00;98082.51;107000;1281;23283;-89
2023/01/12 08:59:29;;;;;;;57.60;52.40;;;;;;;4.46;100.00;98083.89;106976;1280;23024;-89
2023/01/12 09:02:01;;;;;;;67.20;61.10;;;;;;;4.52;100.00;98077.00;106970;1280;22537;-89
2023/01/12 09:04:30;;;;;;;44.70;40.40;;;;;;;4.59;100.00;98070.23;107172;1280;23939;-89
2023/01/12 09:06:58;;;;;;;34.80;31.70;;;;;;;4.68;100.00;98066.30;106913;1280;23027;-88
2023/01/12 09:09:27;;;;;;;35.20;31.90;;;;;;;4.79;100.00;98064.39;107026;1281;22586;-88
2023/01/12 09:11:55;;;;;;;39.90;36.20;;;;;;;4.85;100.00;98062.98;107044;1277;22621;-87
2023/01/12 09:14:26;;;;;;;28.30;25.60;;;;;;;4.93;100.00;98061.86;107131;1281;23079;-87
2023/01/12 09:16:55;;;;;;;29.10;26.50;;;;;;;5.01;100.00;98061.11;107187;1281;25291;-88
2023/01/12 09:19:24;;;;;;;24.60;22.10;;;;;;;5.13;100.00;98063.20;107331;1281;27796;-92
2023/01/12 09:21:52;;;;;;;24.00;21.60;;;;;;;5.28;100.00;98056.17;107244;1280;23258;-91
2023/01/12 09:24:20;;;;;;;20.50;18.20;;;;;;;5.39;100.00;98049.71;107120;1281;22540;-90
2023/01/12 09:26:48;;;;;;;21.40;19.20;;;;;;;5.49;100.00;98042.58;107095;1281;22541;-90
2023/01/12 09:29:16;;;;;;;23.20;20.90;;;;;;;5.57;100.00;98041.11;107091;1273;24270;-90
2023/01/12 09:31:46;;;;;;;20.40;18.40;;;;;;;5.67;100.00;98040.83;107078;1280;22598;-90
2023/01/12 09:34:14;;;;;;;25.10;22.70;;;;;;;5.79;100.00;98037.75;107012;1275;22578;-91
2023/01/12 09:36:43;;;;;;;24.30;22.10;;;;;;;5.91;100.00;98039.13;106886;1283;22568;-90
2023/01/12 09:46:59;;;;;;;24.50;18.60;;;;;;;6.18;99.85;98035.27;106992;1283;22635;-93
2023/01/12 09:49:33;;;;;;;22.30;20.10;;;;;;;6.26;98.85;98034.27;106976;1283;22536;-90
2023/01/12 09:52:19;;;;;;;28.00;24.30;;;;;;;6.29;98.31;98025.86;107113;1282;23219;-90
2023/01/12 09:54:50;;;;;;;21.90;19.60;;;;;;;6.33;97.84;98025.02;107086;1283;23307;-89
2023/01/12 09:57:56;;;;;;;18.70;16.20;;;;;;;6.42;98.24;98024.27;107332;1279;22564;-91
2023/01/12 10:00:27;;;;;;;18.50;16.60;;;;;;;6.52;97.52;98025.33;108814;1283;22604;-88
2023/01/12 10:03:23;;;;;;;20.70;18.50;;;;;;;6.56;95.59;98030.41;109506;1283;22564;-90
2023/01/12 10:05:56;;;;;;;20.90;19.10;;;;;;;6.58;96.35;98018.58;109496;1283;22610;-90
2023/01/12 10:08:43;;;;;;;20.10;18.00;;;;;;;6.64;96.31;98013.69;109377;1276;22553;-90
2023/01/12 10:11:21;;;;;;;19.10;16.60;;;;;;;6.73;96.18;98011.53;109670;1282;24275;-89
2023/01/12 10:13:58;;;;;;;21.20;19.10;;;;;;;6.83;94.76;98009.05;109712;1283;22549;-89
2023/01/12 10:16:36;;;;;;;21.60;19.40;;;;;;;6.89;94.93;98003.67;109355;1283;22888;-90
2023/01/12 10:19:23;;;;;;;21.30;18.60;;;;;;;6.92;92.51;98008.23;109060;1283;22805;-91
2023/01/12 10:22:12;;;;;;;22.50;19.90;;;;;;;6.92;92.73;97999.98;107148;1283;24234;-92
2023/01/12 10:26:40;;;;;;;26.80;24.00;;;;;;;7.02;93.15;97998.83;106900;1284;23427;-91
2023/01/12 10:31:12;;;;;;;28.40;25.50;;;;;;;7.15;93.20;97991.93;106990;1283;22544;-92
2023/01/12 10:39:04;;;;;;;25.90;23.40;;;;;;;7.33;90.95;97991.20;106852;1286;22595;-92
2023/01/12 10:41:34;;;;;;;15.30;12.40;;;;;;;7.43;90.16;97990.73;106763;1285;22591;-91
2023/01/12 10:44:02;;;;;;;18.80;16.90;;;;;;;7.53;88.98;97986.17;107029;1286;22547;-89
2023/01/12 10:46:31;;;;;;;14.70;11.40;;;;;;;7.60;89.06;97980.73;106639;1286;22659;-90
2023/01/12 10:49:28;;;;;;;15.00;12.90;;;;;;;7.68;87.46;97981.10;106645;1286;22573;-91
2023/01/12 10:52:03;;;;;;;11.10;10.00;;;;;;;7.71;84.24;97981.56;106074;1291;22609;-89
2023/01/12 10:54:37;;;;;;;15.60;13.40;;;;;;;7.71;83.40;97979.14;106437;1291;22556;-89
2023/01/12 10:57:21;;;;;;;16.50;13.90;;;;;;;7.75;81.96;97973.16;106431;1291;25571;-90
2023/01/12 10:59:58;;;;;;;14.70;9.90;;;;;;;7.80;82.50;97974.96;106465;1291;26269;-88
2023/01/12 11:02:40;;;;;;;13.00;8.70;;;;;;;7.86;81.54;97977.07;106373;1291;22584;-89
2023/01/12 11:05:34;;;;;;;10.10;8.30;;;;;;;7.94;81.79;97972.08;106480;1289;25415;-90
2023/01/12 11:08:19;;;;;;;13.50;8.90;;;;;;;8.06;81.75;97974.35;106332;1290;22547;-86
2023/01/12 11:10:48;;;;;;;9.80;6.70;;;;;;;8.15;79.94;97973.52;106489;1274;25379;-90
2023/01/12 11:17:50;;;;;;;12.40;7.80;;;;;;;8.22;77.69;97967.08;106678;1289;24305;-89
2023/01/12 11:20:24;;;;;;;11.20;6.60;;;;;;;8.20;77.71;97958.56;106451;1289;22554;-89
2023/01/12 11:23:27;;;;;;;11.10;7.50;;;;;;;8.20;77.11;97954.81;106555;1279;22532;-89
2023/01/12 11:25:55;;;;;;;11.70;7.00;;;;;;;8.15;76.67;97952.38;106684;1289;22662;-89
2023/01/12 11:28:32;;;;;;;9.50;6.40;;;;;;;8.13;75.34;97957.86;106916;1273;23263;-91
2023/01/12 11:31:15;;;;;;;11.30;6.70;;;;;;;8.13;76.02;97960.83;107157;1273;22535;-90
2023/01/12 11:33:45;;;;;;;9.80;6.90;;;;;;;8.07;74.77;97973.33;107451;1281;23310;-91
2023/01/12 11:36:22;;;;;;;14.90;11.40;;;;;;;7.93;74.16;97966.66;107975;1281;22557;-90
2023/01/12 11:38:55;;;;;;;11.60;8.70;;;;;;;7.91;73.65;97978.91;107129;1281;22543;-90
2023/01/12 11:45:06;;;;;;;15.30;11.10;;;;;;;8.37;74.87;97958.59;108051;1281;24261;-91
2023/01/12 11:47:39;;;;;;;21.80;16.90;;;;;;;9.13;74.12;97956.09;108081;1281;22589;-91
2023/01/12 11:50:29;;;;;;;16.10;13.50;;;;;;;9.20;71.39;97965.95;107914;1282;25417;-88
2023/01/12 11:52:58;;;;;;;13.40;11.50;;;;;;;9.01;70.80;97962.52;107633;1282;22554;-89
2023/01/12 11:55:38;;;;;;;10.70;7.40;;;;;;;8.76;70.41;97960.75;107859;1273;22569;-89
2023/01/12 11:58:24;;;;;;;13.70;10.00;;;;;;;8.64;71.60;97956.58;107751;1281;22805;-88
2023/01/12 12:01:27;;;;;;;18.30;12.60;;;;;;;9.00;72.11;97954.67;107797;1282;23270;-89
2023/01/12 12:04:02;;;;;;;15.20;10.60;;;;;;;9.46;71.06;97948.80;107638;1282;22594;-88
2023/01/12 12:07:16;;;;;;;10.10;6.40;;;;;;;9.94;69.29;97943.34;107903;1279;22596;-90
2023/01/12 12:09:56;;;;;;;13.90;9.40;;;;;;;10.78;66.78;97937.52;109612;1281;22674;-90
2023/01/12 12:12:55;;;;;;;15.90;9.60;;;;;;;11.20;66.01;97931.30;109789;1284;22576;-88
2023/01/12 12:15:31;;;;;;;10.60;7.30;;;;;;;12.31;63.43;97919.46;109010;1284;22540;-89
2023/01/12 12:18:26;;;;;;;12.50;8.90;;;;;;;13.09;64.92;97918.34;107984;1279;25426;-91
2023/01/12 12:21:32;;;;;;;16.20;10.20;;;;;;;13.55;61.80;97922.27;107980;1284;22505;-90
2023/01/12 12:28:20;;;;;;;15.90;9.30;;;;;;;13.95;58.66;97917.88;107667;1285;25485;-89
2023/01/12 12:31:20;;;;;;;12.60;8.30;;;;;;;14.56;57.80;97910.63;107424;1273;24358;-90
2023/01/12 12:34:02;;;;;;;13.40;7.00;;;;;;;14.91;55.05;97906.73;108415;1285;25526;-93
2023/01/12 12:36:36;;;;;;;11.10;6.80;;;;;;;14.99;53.79;97908.30;108504;1284;23025;-94
2023/01/12 12:39:44;;;;;;;11.90;6.80;;;;;;;15.09;53.29;97912.84;108791;1281;22582;-93
2023/01/12 12:45:38;;;;;;;13.30;6.50;;;;;;;15.29;52.70;97906.51;109372;1282;22574;-94
2023/01/12 12:48:17;;;;;;;7.80;5.30;;;;;;;15.67;52.16;97904.84;108540;1268;22543;-95
2023/01/12 12:50:58;;;;;;;10.60;6.30;;;;;;;15.63;49.06;97908.75;108114;1280;22556;-93
2023/01/12 12:53:32;;;;;;;10.30;6.70;;;;;;;15.43;49.47;97902.38;108478;1281;22544;-94
2023/01/12 12:56:04;;;;;;;10.80;5.20;;;;;;;15.39;47.56;97902.48;108476;1281;22805;-95
2023/01/12 12:58:38;;;;;;;11.00;5.30;;;;;;;15.24;46.76;97899.65;108351;1281;22265;-93
2023/01/12 13:01:23;;;;;;;12.50;7.00;;;;;;;14.94;48.18;97892.45;108296;1281;24920;-93
2023/01/12 13:04:00;;;;;;;11.70;5.90;;;;;;;15.09;47.87;97890.93;108133;1276;22571;-95
2023/01/12 13:06:37;;;;;;;10.70;5.30;;;;;;;15.12;46.57;97899.27;108063;1282;23938;-94
2023/01/12 13:09:15;;;;;;;16.20;7.60;;;;;;;14.89;45.98;97899.44;108951;1267;22544;-94
2023/01/12 13:11:50;;;;;;;10.00;6.00;;;;;;;14.65;47.30;97901.82;108949;1281;23988;-93
2023/01/12 13:14:30;;;;;;;11.10;6.30;;;;;;;14.60;47.05;97904.92;108827;1263;23256;-93
2023/01/12 13:17:19;;;;;;;10.80;7.70;;;;;;;14.61;47.47;97903.89;108793;1281;22650;-93
2023/01/12 13:19:48;;;;;;;13.30;9.10;;;;;;;14.50;47.39;97904.05;109176;1270;22641;-90
2023/01/12 13:22:41;;;;;;;12.10;6.60;;;;;;;14.26;47.34;97894.34;109092;1273;22701;-91
2023/01/12 13:25:15;;;;;;;20.00;17.80;;;;;;;13.98;49.47;97888.65;108501;1281;22577;-88
2023/01/12 13:28:01;;;;;;;14.80;11.60;;;;;;;13.92;48.75;97888.27;108271;1281;22664;-91
2023/01/12 13:30:33;;;;;;;11.40;6.90;;;;;;;13.58;48.82;97886.29;109445;1282;22181;-92